Time;durP1;ratioP1;P1;durP2;ratioP2;P2;SDS_P1;SDS_P2;PMS_P1;PMS_P2;Temp;Humidity;BMP_temperature;BMP_pressure;BME280_temperature;BME280_humidity;BME280_pressure;Samples;Min_cycle;Max_cycle;Signal;HPM_P1;HPM_P2
2022/05/16 00:00:11;;;;;;;8.70;3.95;;;17.20;99.20;;;;;;4937773;29;20051;-69
2022/05/16 00:02:37;;;;;;;9.68;4.07;;;17.20;99.30;;;;;;4938293;29;20043;-68
2022/05/16 00:05:04;;;;;;;7.30;4.28;;;17.10;99.30;;;;;;4937923;29;20103;-68
2022/05/16 00:07:30;;;;;;;7.55;4.30;;;17.00;99.90;;;;;;4938070;29;20038;-69
2022/05/16 00:09:56;;;;;;;8.32;4.00;;;17.00;99.60;;;;;;4938118;29;20032;-69
2022/05/16 00:12:21;;;;;;;8.23;4.63;;;17.00;99.70;;;;;;4937893;29;20031;-68
2022/05/16 00:14:47;;;;;;;7.18;3.92;;;17.00;99.90;;;;;;4938039;29;20540;-68
2022/05/16 00:17:14;;;;;;;8.00;4.10;;;16.90;99.90;;;;;;4937952;29;20028;-67
2022/05/16 00:19:41;;;;;;;11.60;4.90;;;16.90;99.90;;;;;;4936532;29;20099;-68
2022/05/16 00:22:08;;;;;;;12.43;4.43;;;16.90;99.90;;;;;;4936580;29;20030;-69
2022/05/16 00:24:33;;;;;;;9.48;4.05;;;16.80;99.90;;;;;;4937470;29;20085;-67
2022/05/16 00:26:59;;;;;;;10.45;4.32;;;16.80;99.90;;;;;;4937479;29;20063;-67
2022/05/16 00:29:26;;;;;;;20.25;4.40;;;16.80;99.90;;;;;;4936106;29;20028;-67
2022/05/16 00:31:54;;;;;;;27.88;4.65;;;16.80;99.90;;;;;;4936385;29;20052;-67
2022/05/16 00:34:20;;;;;;;8.18;4.50;;;16.80;99.90;;;;;;4937208;29;20083;-67
2022/05/16 00:36:48;;;;;;;10.48;4.07;;;16.80;99.90;;;;;;4937469;29;20071;-67
2022/05/16 00:39:19;;;;;;;10.82;4.22;;;16.70;99.90;;;;;;4936327;29;20039;-67
2022/05/16 00:41:45;;;;;;;8.00;4.05;;;16.70;99.90;;;;;;4937561;29;20024;-67
2022/05/16 00:44:12;;;;;;;10.52;4.35;;;16.60;99.90;;;;;;4937489;29;20032;-67
2022/05/16 00:46:38;;;;;;;6.75;4.22;;;16.60;99.90;;;;;;4937446;29;20055;-66
2022/05/16 00:49:11;;;;;;;13.88;5.10;;;16.50;99.90;;;;;;4936111;29;20429;-67
2022/05/16 00:52:27;;;;;;;10.00;4.63;;;16.50;99.90;;;;;;4936107;29;20027;-68
2022/05/16 00:54:56;;;;;;;7.07;4.50;;;16.50;99.90;;;;;;4859717;29;20049;-67
2022/05/16 00:57:34;;;;;;;13.95;5.00;;;16.40;99.90;;;;;;4859700;29;20041;-68
2022/05/16 01:00:11;;;;;;;13.52;5.13;;;16.40;99.90;;;;;;4859637;29;20030;-69
2022/05/16 01:05:25;;;;;;;7.32;4.65;;;16.40;99.90;;;;;;4859899;29;20060;-69
2022/05/16 01:07:51;;;;;;;7.28;4.47;;;16.40;99.90;;;;;;4859525;29;20037;-68
2022/05/16 01:10:19;;;;;;;10.15;5.10;;;16.40;99.90;;;;;;4859549;29;20042;-69
2022/05/16 01:12:48;;;;;;;10.73;4.85;;;16.40;99.90;;;;;;4859414;29;20041;-69
2022/05/16 01:15:29;;;;;;;7.45;4.80;;;16.30;99.90;;;;;;4859524;29;20036;-69
2022/05/16 01:17:55;;;;;;;12.07;5.55;;;16.30;99.90;;;;;;4859396;29;20041;-68
2022/05/16 01:20:20;;;;;;;10.18;5.03;;;16.30;99.90;;;;;;4859395;29;20380;-69
2022/05/16 01:22:50;;;;;;;8.95;4.85;;;16.20;99.90;;;;;;4859254;29;20056;-69
2022/05/16 01:25:23;;;;;;;7.88;4.35;;;16.20;99.90;;;;;;4859271;29;20108;-69
2022/05/16 01:27:58;;;;;;;10.60;5.18;;;16.20;99.90;;;;;;4843726;29;20033;-69
2022/05/16 01:30:30;;;;;;;12.05;5.15;;;16.20;99.90;;;;;;4904948;29;20043;-69
2022/05/16 01:32:56;;;;;;;7.32;4.70;;;16.10;99.90;;;;;;4936565;29;20064;-68
2022/05/16 01:35:26;;;;;;;12.02;4.97;;;16.10;99.90;;;;;;4936562;29;20504;-68
2022/05/16 01:40:38;;;;;;;11.48;5.00;;;16.00;99.90;;;;;;4936218;29;20449;-69
2022/05/16 01:43:05;;;;;;;10.85;4.75;;;16.00;99.90;;;;;;4936440;29;20066;-69
2022/05/16 01:45:31;;;;;;;8.32;5.45;;;15.90;99.90;;;;;;4936115;29;20437;-69
2022/05/16 01:47:57;;;;;;;13.23;5.43;;;15.80;99.90;;;;;;4936274;29;20465;-69
2022/05/16 01:50:23;;;;;;;11.45;4.97;;;15.80;99.90;;;;;;4936383;29;20032;-68
2022/05/16 01:52:49;;;;;;;6.55;5.78;;;15.70;99.90;;;;;;4934910;29;20036;-68
2022/05/16 01:55:16;;;;;;;15.23;6.60;;;15.70;99.90;;;;;;4936209;29;20024;-67
2022/05/16 01:57:42;;;;;;;15.10;6.47;;;15.60;99.90;;;;;;4936215;29;20110;-67
2022/05/16 02:00:11;;;;;;;18.42;6.93;;;15.50;99.90;;;;;;4934949;29;20433;-69
2022/05/16 02:02:41;;;;;;;16.63;7.80;;;15.50;99.90;;;;;;4936132;29;20059;-69
2022/05/16 02:05:27;;;;;;;15.57;7.65;;;15.40;99.90;;;;;;4934809;29;20087;-68
2022/05/16 02:07:54;;;;;;;14.18;6.57;;;15.40;99.90;;;;;;4935184;29;20132;-70
2022/05/16 02:10:23;;;;;;;14.35;6.68;;;15.20;99.90;;;;;;4934786;29;20039;-71
2022/05/16 02:12:50;;;;;;;12.05;7.85;;;15.20;99.90;;;;;;4935919;29;20040;-69
2022/05/16 02:15:20;;;;;;;16.05;7.82;;;15.20;99.90;;;;;;4936007;29;20028;-67
2022/05/16 02:17:46;;;;;;;16.00;7.65;;;15.20;99.90;;;;;;4936009;29;20024;-68
2022/05/16 02:20:14;;;;;;;10.05;6.93;;;15.20;99.90;;;;;;4935674;29;20042;-67
2022/05/16 02:25:25;;;;;;;16.02;6.80;;;15.20;99.90;;;;;;4935625;29;20039;-68
2022/05/16 02:27:51;;;;;;;40.60;8.85;;;15.30;99.90;;;;;;4934592;29;20027;-68
2022/05/16 02:30:18;;;;;;;18.20;8.05;;;15.30;99.90;;;;;;4936105;29;20067;-68
2022/05/16 02:32:44;;;;;;;28.60;8.07;;;15.30;99.90;;;;;;4934670;29;20106;-68
2022/05/16 02:35:10;;;;;;;20.17;7.93;;;15.20;99.90;;;;;;4933912;29;20498;-68
2022/05/16 02:37:36;;;;;;;18.77;8.32;;;15.20;99.90;;;;;;4935790;29;20452;-68
2022/05/16 02:40:03;;;;;;;13.65;7.53;;;15.20;99.90;;;;;;4936020;29;20067;-68
2022/05/16 02:42:29;;;;;;;12.85;7.85;;;15.20;99.90;;;;;;4935988;29;20031;-68
2022/05/16 02:44:55;;;;;;;12.20;7.40;;;15.20;99.90;;;;;;4935738;29;20046;-68
2022/05/16 02:47:22;;;;;;;15.68;7.95;;;15.20;99.90;;;;;;4935984;29;20115;-68
2022/05/16 02:49:49;;;;;;;15.63;7.22;;;15.10;99.90;;;;;;4939527;29;20024;-68
2022/05/16 02:52:15;;;;;;;13.15;6.93;;;15.10;99.90;;;;;;4939541;29;20028;-67
2022/05/16 02:54:41;;;;;;;10.88;6.97;;;15.10;99.90;;;;;;4939424;29;20036;-67
2022/05/16 02:57:07;;;;;;;13.38;6.63;;;15.10;99.90;;;;;;4939409;29;20031;-67
2022/05/16 02:59:35;;;;;;;10.38;6.75;;;15.10;99.90;;;;;;4937763;29;20035;-68
2022/05/16 03:02:02;;;;;;;23.83;7.43;;;15.10;99.90;;;;;;4939438;29;20039;-67
2022/05/16 03:04:29;;;;;;;15.20;7.05;;;15.10;99.90;;;;;;4937709;29;20028;-67
2022/05/16 03:06:56;;;;;;;17.40;7.57;;;15.10;99.90;;;;;;4939276;29;20075;-70
2022/05/16 03:09:22;;;;;;;16.33;6.75;;;15.00;99.90;;;;;;4938872;29;20035;-71
2022/05/16 03:11:49;;;;;;;25.77;8.02;;;15.00;99.90;;;;;;4939251;29;20516;-71
2022/05/16 03:14:15;;;;;;;16.02;6.80;;;15.00;99.90;;;;;;4937918;29;20087;-71
2022/05/16 03:16:41;;;;;;;14.30;6.65;;;15.00;99.90;;;;;;4939082;29;20449;-71
2022/05/16 03:19:07;;;;;;;15.63;7.50;;;15.00;99.90;;;;;;4939055;29;20585;-70
2022/05/16 03:21:34;;;;;;;15.57;6.80;;;14.90;99.90;;;;;;4939328;29;20358;-69
2022/05/16 03:24:00;;;;;;;11.15;6.88;;;14.90;99.90;;;;;;4938920;29;20031;-68
2022/05/16 03:26:26;;;;;;;31.23;8.35;;;14.80;99.90;;;;;;4938901;29;20036;-69
2022/05/16 03:28:52;;;;;;;33.25;8.43;;;14.90;99.90;;;;;;4938012;29;20035;-69
2022/05/16 03:31:18;;;;;;;29.23;8.85;;;14.80;99.90;;;;;;4937437;29;20028;-69
2022/05/16 03:33:44;;;;;;;29.10;7.70;;;14.80;99.90;;;;;;4938402;29;20394;-70
2022/05/16 03:36:11;;;;;;;21.77;7.82;;;14.80;99.90;;;;;;4937493;29;20036;-69
2022/05/16 03:41:22;;;;;;;32.40;9.20;;;14.80;99.90;;;;;;4938373;29;20043;-68
2022/05/16 03:43:50;;;;;;;26.95;8.95;;;14.80;99.90;;;;;;4938564;29;20034;-67
2022/05/16 03:46:17;;;;;;;26.90;11.90;;;14.80;99.90;;;;;;4938438;29;20031;-68
2022/05/16 03:48:43;;;;;;;18.42;11.93;;;14.70;99.90;;;;;;4938504;29;20133;-69
2022/05/16 03:51:11;;;;;;;18.27;8.18;;;14.70;99.90;;;;;;4937194;29;20031;-70
2022/05/16 03:53:42;;;;;;;20.75;7.78;;;14.70;99.90;;;;;;4938340;29;20488;-70
2022/05/16 03:56:08;;;;;;;26.65;8.82;;;14.80;99.90;;;;;;4938367;29;20024;-71
2022/05/16 03:58:34;;;;;;;16.20;9.27;;;14.80;99.90;;;;;;4938052;29;20047;-71
2022/05/16 04:01:00;;;;;;;19.85;8.70;;;14.80;99.90;;;;;;4937307;29;20378;-71
2022/05/16 04:03:27;;;;;;;16.75;8.02;;;14.80;99.90;;;;;;4938209;29;20051;-71
2022/05/16 04:05:53;;;;;;;21.35;7.90;;;14.70;99.90;;;;;;4936875;29;20030;-70
2022/05/16 04:08:18;;;;;;;15.68;9.82;;;14.70;99.90;;;;;;4937823;29;20362;-71
2022/05/16 04:10:44;;;;;;;19.25;9.43;;;14.80;99.90;;;;;;4938124;29;20091;-71
2022/05/16 04:13:13;;;;;;;22.52;10.23;;;14.80;99.90;;;;;;4937990;29;20421;-70
2022/05/16 04:15:39;;;;;;;15.75;8.07;;;14.90;99.90;;;;;;4938000;29;20452;-71
2022/05/16 04:18:05;;;;;;;15.80;8.55;;;14.90;99.90;;;;;;4936703;29;20122;-69
2022/05/16 04:20:30;;;;;;;18.63;8.40;;;14.90;99.90;;;;;;4937953;29;20055;-69
2022/05/16 04:22:56;;;;;;;19.30;8.75;;;14.90;99.90;;;;;;4937883;29;20044;-69
2022/05/16 04:25:22;;;;;;;24.75;9.40;;;15.00;99.90;;;;;;4938078;29;20432;-69
2022/05/16 04:27:49;;;;;;;24.40;8.30;;;15.10;99.90;;;;;;4937771;29;20020;-67
2022/05/16 04:30:15;;;;;;;23.83;8.80;;;15.10;99.90;;;;;;4936406;29;20072;-67
2022/05/16 04:32:41;;;;;;;20.52;9.05;;;15.20;99.90;;;;;;4937650;29;20031;-67
2022/05/16 04:35:08;;;;;;;20.75;9.30;;;15.30;99.90;;;;;;4937253;29;20051;-67
2022/05/16 04:37:34;;;;;;;27.75;8.75;;;15.40;99.90;;;;;;4937850;29;20028;-67
2022/05/16 04:40:02;;;;;;;34.72;8.75;;;15.50;99.90;;;;;;4937562;29;20039;-67
2022/05/16 04:42:40;;;;;;;35.47;9.55;;;15.50;99.90;;;;;;4937560;29;20067;-67
2022/05/16 04:45:08;;;;;;;50.40;11.45;;;15.60;99.90;;;;;;4937523;29;20059;-67
2022/05/16 04:47:34;;;;;;;27.40;9.18;;;15.70;99.90;;;;;;4937383;29;20024;-67
2022/05/16 04:50:00;;;;;;;19.60;8.10;;;15.80;99.90;;;;;;4937333;29;20034;-67
2022/05/16 04:52:26;;;;;;;20.70;8.35;;;16.00;99.90;;;;;;4937390;29;20427;-67
2022/05/16 04:54:52;;;;;;;19.25;7.70;;;16.10;99.90;;;;;;4937213;29;20035;-67
2022/05/16 04:57:18;;;;;;;10.18;6.82;;;16.20;99.90;;;;;;4937259;29;20067;-67
2022/05/16 04:59:47;;;;;;;19.42;7.60;;;16.20;99.90;;;;;;4937233;29;20059;-67
2022/05/16 05:02:14;;;;;;;17.25;6.90;;;16.30;99.90;;;;;;4937146;29;20473;-67
2022/05/16 05:04:39;;;;;;;9.65;6.50;;;16.40;99.90;;;;;;4937037;29;20035;-68
2022/05/16 05:07:05;;;;;;;17.23;7.43;;;16.40;99.90;;;;;;4936991;29;20032;-66
2022/05/16 05:09:31;;;;;;;15.73;6.60;;;16.50;99.90;;;;;;4936593;29;20032;-69
2022/05/16 05:14:42;;;;;;;12.88;7.05;;;16.60;99.90;;;;;;4936542;29;20147;-66
2022/05/16 05:17:11;;;;;;;12.02;6.18;;;16.60;99.90;;;;;;4935513;29;20046;-66
2022/05/16 05:19:40;;;;;;;15.15;6.40;;;16.70;99.90;;;;;;4935458;29;20055;-67
2022/05/16 05:22:06;;;;;;;18.13;7.00;;;16.80;99.90;;;;;;4936871;29;20060;-67
2022/05/16 05:24:32;;;;;;;15.07;6.43;;;16.90;99.90;;;;;;4936559;29;20529;-67
2022/05/16 05:26:58;;;;;;;14.18;5.75;;;17.00;99.90;;;;;;4936538;29;20032;-67
2022/05/16 05:29:25;;;;;;;10.02;5.63;;;17.00;99.90;;;;;;4936866;29;20032;-67
2022/05/16 05:31:51;;;;;;;10.73;6.28;;;17.10;99.90;;;;;;4936905;29;20030;-66
2022/05/16 05:34:17;;;;;;;16.45;6.28;;;17.10;99.90;;;;;;4936375;29;20162;-64
2022/05/16 05:36:44;;;;;;;13.43;6.47;;;17.20;99.90;;;;;;4936465;29;20032;-66
2022/05/16 05:39:13;;;;;;;13.30;6.68;;;17.20;99.90;;;;;;4936683;29;20039;-65
2022/05/16 05:41:40;;;;;;;11.18;6.38;;;17.30;99.90;;;;;;4936328;29;20057;-67
2022/05/16 05:44:05;;;;;;;15.38;6.45;;;17.40;99.90;;;;;;4936157;29;20592;-66
2022/05/16 05:46:39;;;;;;;17.23;6.97;;;17.50;99.90;;;;;;4936260;29;20111;-65
2022/05/16 05:49:06;;;;;;;15.90;6.65;;;17.60;99.90;;;;;;4936248;29;20140;-65
2022/05/16 05:51:32;;;;;;;13.82;6.72;;;17.70;99.90;;;;;;4936255;29;20036;-66
2022/05/16 05:53:58;;;;;;;16.55;6.95;;;17.80;99.90;;;;;;4934769;29;20384;-66
2022/05/16 05:56:24;;;;;;;15.05;7.53;;;17.80;99.90;;;;;;4935813;29;20043;-64
2022/05/16 05:58:52;;;;;;;13.25;7.30;;;17.90;99.90;;;;;;4936049;29;20354;-69
2022/05/16 06:01:18;;;;;;;14.48;6.47;;;18.00;99.90;;;;;;4935978;29;20028;-65
2022/05/16 06:03:44;;;;;;;19.52;6.82;;;18.10;99.90;;;;;;4936020;29;20031;-64
2022/05/16 06:06:10;;;;;;;12.02;5.50;;;18.10;99.90;;;;;;4935899;29;20511;-64
2022/05/16 06:08:35;;;;;;;13.73;6.00;;;18.20;99.90;;;;;;4935807;29;20027;-64
2022/05/16 06:11:02;;;;;;;13.38;6.63;;;;;;;;;;4935191;29;20028;-64
2022/05/16 06:13:29;;;;;;;13.07;5.65;;;;;;;;;;4933220;29;20069;-64
2022/05/16 06:15:55;;;;;;;15.27;6.13;;;;;;;;;;4935723;29;20035;-68
2022/05/16 06:18:22;;;;;;;15.00;6.50;;;18.50;99.90;;;;;;4935867;29;20071;-68
2022/05/16 06:20:48;;;;;;;13.15;6.32;;;18.70;99.90;;;;;;4935755;29;20468;-67
2022/05/16 06:23:14;;;;;;;24.80;6.97;;;18.90;99.90;;;;;;4935482;29;20071;-68
2022/05/16 06:25:43;;;;;;;15.82;6.82;;;19.00;99.90;;;;;;4929382;29;20473;-75
2022/05/16 06:28:20;;;;;;;21.48;5.82;;;19.10;99.90;;;;;;4935432;29;20028;-66
2022/05/16 06:30:47;;;;;;;18.80;6.38;;;19.20;99.90;;;;;;4935654;29;20157;-70
2022/05/16 06:33:15;;;;;;;14.40;4.80;;;19.30;99.90;;;;;;4935419;29;20032;-69
2022/05/16 06:35:42;;;;;;;15.57;5.65;;;19.40;99.90;;;;;;4935771;29;20071;-69
2022/05/16 06:38:11;;;;;;;10.13;5.07;;;19.60;99.90;;;;;;4935568;29;20059;-67
2022/05/16 06:40:39;;;;;;;20.65;5.57;;;19.80;99.90;;;;;;4935886;29;20047;-66
2022/05/16 06:43:05;;;;;;;11.00;5.63;;;;;;;;;;4934390;29;20115;-68
2022/05/16 06:45:32;;;;;;;17.98;6.30;;;;;;;;;;4950358;29;20436;-69
2022/05/16 06:47:58;;;;;;;19.67;5.75;;;;;;;;;;4935594;29;20032;-65
2022/05/16 06:50:24;;;;;;;17.48;5.93;;;20.50;99.90;;;;;;4949989;29;20020;-75
2022/05/16 06:52:51;;;;;;;19.00;5.97;;;;;;;;;;4935317;29;20035;-65
2022/05/16 06:55:17;;;;;;;11.65;5.53;;;;;;;;;;4949891;29;20047;-68
2022/05/16 06:57:43;;;;;;;17.77;4.93;;;;;;;;;;4935351;29;20039;-65
2022/05/16 07:00:10;;;;;;;12.80;5.43;;;;;;;;;;4935290;29;20499;-66
2022/05/16 07:02:36;;;;;;;16.48;6.20;;;;;;;;;;4935486;29;20024;-66
2022/05/16 07:05:03;;;;;;;12.00;5.68;;;;;;;;;;4949870;29;20028;-66
2022/05/16 07:07:29;;;;;;;10.25;4.80;;;;;;;;;;4935101;29;20091;-66
2022/05/16 07:09:55;;;;;;;11.70;5.30;;;;;;;;;;4935135;29;20034;-70
2022/05/16 07:12:21;;;;;;;9.48;4.88;;;;;;;;;;4935170;29;20473;-64
2022/05/16 07:14:48;;;;;;;13.95;5.15;;;;;;;;;;4935172;29;20070;-64
2022/05/16 07:17:14;;;;;;;18.35;6.57;;;;;;;;;;4934990;29;20020;-66
2022/05/16 07:19:41;;;;;;;15.45;5.88;;;;;;;;;;4949779;29;20062;-64
2022/05/16 07:22:12;;;;;;;17.45;5.38;;;21.60;99.90;;;;;;4935324;29;20031;-65
2022/05/16 07:24:45;;;;;;;14.27;6.57;;;21.90;99.90;;;;;;4935214;29;20032;-64
2022/05/16 07:29:57;;;;;;;33.17;11.55;;;22.10;99.90;;;;;;4934934;29;20511;-66
2022/05/16 07:32:23;;;;;;;13.65;4.70;;;;;;;;;;4935108;29;20094;-65
2022/05/16 07:34:49;;;;;;;20.70;6.03;;;;;;;;;;4935345;29;20473;-67
2022/05/16 07:37:15;;;;;;;10.77;4.68;;;22.40;99.60;;;;;;4938509;29;20027;-66
2022/05/16 07:39:41;;;;;;;8.35;3.65;;;22.60;99.90;;;;;;4937160;29;20039;-66
2022/05/16 07:42:09;;;;;;;20.55;8.32;;;;;;;;;;4938519;29;20046;-66
2022/05/16 07:44:37;;;;;;;10.63;4.47;;;22.80;99.70;;;;;;4953116;29;20032;-66
2022/05/16 07:47:04;;;;;;;11.00;4.45;;;22.90;99.30;;;;;;4938305;29;20101;-66
2022/05/16 07:49:30;;;;;;;14.73;6.10;;;;;;;;;;4938253;29;20059;-66
2022/05/16 07:51:57;;;;;;;10.82;3.88;;;;;;;;;;4938290;29;20039;-66
2022/05/16 07:54:23;;;;;;;12.25;4.55;;;;;;;;;;4938238;29;20039;-66
2022/05/16 07:56:49;;;;;;;20.65;5.10;;;;;;;;;;4952895;29;20473;-66
2022/05/16 07:59:16;;;;;;;11.40;4.63;;;23.20;97.90;;;;;;4937896;29;20091;-66
2022/05/16 08:01:42;;;;;;;15.30;4.53;;;23.60;94.90;;;;;;4938152;29;20031;-66
2022/05/16 08:04:08;;;;;;;20.50;4.40;;;23.70;94.00;;;;;;4938128;29;20032;-66
2022/05/16 08:06:35;;;;;;;14.32;3.33;;;;;;;;;;4937476;29;20031;-64
2022/05/16 08:11:46;;;;;;;13.70;4.82;;;24.30;94.10;;;;;;4937647;29;20054;-62
2022/05/16 08:14:12;;;;;;;16.83;5.20;;;24.30;94.20;;;;;;4936601;29;20500;-63
2022/05/16 08:16:39;;;;;;;21.85;5.70;;;24.50;94.70;;;;;;4936450;29;20032;-63
2022/05/16 08:19:05;;;;;;;15.57;4.50;;;;;;;;;;4936542;29;20122;-62
2022/05/16 08:21:31;;;;;;;16.35;4.97;;;24.60;93.90;;;;;;4936382;29;20116;-63
2022/05/16 08:23:57;;;;;;;17.30;4.30;;;;;;;;;;4937655;29;20133;-63
2022/05/16 08:26:23;;;;;;;13.10;4.72;;;24.90;92.40;;;;;;4937636;29;20184;-64
2022/05/16 08:28:49;;;;;;;5.43;2.63;;;25.10;92.10;;;;;;4937694;29;20098;-65
2022/05/16 08:31:15;;;;;;;8.30;2.60;;;;;;;;;;4931269;29;20024;-67
2022/05/16 08:33:41;;;;;;;4.97;2.33;;;25.20;90.00;;;;;;4917959;29;20063;-65
2022/05/16 08:42:04;;;;;;;6.97;2.55;;;25.70;86.40;;;;;;4918504;29;20127;-64
2022/05/16 08:44:39;;;;;;;7.50;2.20;;;;;;;;;;4916016;29;20048;-65
2022/05/16 08:47:14;;;;;;;6.20;2.80;;;25.90;83.60;;;;;;4917577;29;20031;-66
2022/05/16 08:49:45;;;;;;;10.07;2.38;;;;;;;;;;4918437;29;20082;-66
2022/05/16 08:52:20;;;;;;;6.13;2.72;;;;;;;;;;4918218;29;20035;-66
2022/05/16 08:55:05;;;;;;;17.25;3.28;;;;;;;;;;4918151;29;20028;-65
2022/05/16 08:57:34;;;;;;;7.10;2.58;;;;;;;;;;4916646;29;20055;-65
2022/05/16 09:00:06;;;;;;;8.57;2.60;;;;;;;;;;4917988;29;20038;-66
2022/05/16 09:02:34;;;;;;;9.18;2.55;;;;;;;;;;4917943;29;20024;-65
2022/05/16 09:05:18;;;;;;;8.00;2.60;;;26.90;78.90;;;;;;4918041;29;20112;-66
2022/05/16 09:07:47;;;;;;;11.30;2.30;;;;;;;;;;4918043;29;20505;-65
2022/05/16 09:10:21;;;;;;;7.45;2.13;;;27.20;75.50;;;;;;4917789;29;20469;-66
2022/05/16 09:13:15;;;;;;;7.72;2.53;;;27.30;77.30;;;;;;4917847;29;20040;-66
2022/05/16 09:15:44;;;;;;;5.00;2.17;;;;;;;;;;4916572;29;20036;-66
2022/05/16 09:18:38;;;;;;;5.10;2.40;;;27.50;78.10;;;;;;4916164;29;20025;-65
2022/05/16 09:21:40;;;;;;;8.15;1.92;;;27.70;72.50;;;;;;4932158;29;20095;-65
2022/05/16 09:24:16;;;;;;;5.20;2.00;;;27.60;74.80;;;;;;4915273;29;20058;-65
2022/05/16 09:28:34;;;;;;;5.95;2.10;;;27.80;76.10;;;;;;4936531;29;20071;-63
2022/05/16 09:30:07;;;;;;;9.15;2.22;;;;;;;;;;4895530;29;20041;-64
2022/05/16 09:32:41;;;;;;;5.22;1.92;;;28.20;72.50;;;;;;4895872;29;20040;-66
2022/05/16 09:35:37;;;;;;;4.22;1.80;;;28.20;72.50;;;;;;4895852;29;20060;-69
2022/05/16 09:38:04;;;;;;;15.05;2.40;;;28.30;72.40;;;;;;4895941;29;20037;-68
2022/05/16 09:40:59;;;;;;;8.25;2.65;;;28.30;72.80;;;;;;4895631;29;20100;-68
2022/05/16 09:43:30;;;;;;;6.75;2.17;;;28.60;71.70;;;;;;4871176;29;20056;-68
2022/05/16 09:46:01;;;;;;;;;;;28.80;73.00;;;;;;4895022;29;20076;-67
2022/05/16 09:48:27;;;;;;;4.38;2.08;;;;;;;;;;4895767;29;20380;-68
2022/05/16 09:51:00;;;;;;;3.97;1.60;;;;;;;;;;4894365;29;20029;-68
2022/05/16 09:53:33;;;;;;;3.53;1.85;;;29.00;66.50;;;;;;4895909;29;20048;-68
2022/05/16 09:56:22;;;;;;;3.97;1.50;;;29.00;66.90;;;;;;4895755;29;20037;-68
2022/05/16 09:58:54;;;;;;;8.18;2.10;;;29.40;68.10;;;;;;4885228;29;20502;-68
2022/05/16 10:01:41;;;;;;;40.25;4.22;;;29.50;68.50;;;;;;4880005;29;20033;-68
2022/05/16 10:04:17;;;;;;;6.03;1.60;;;;;;;;;;4876232;29;20537;-68
2022/05/16 10:06:55;;;;;;;5.00;1.63;;;;;;;;;;4916766;29;20032;-67
2022/05/16 10:09:27;;;;;;;3.78;1.80;;;;;;;;;;4915550;29;20026;-68
2022/05/16 10:11:53;;;;;;;6.80;1.80;;;;;;;;;;4916841;29;20107;-67
2022/05/16 10:14:20;;;;;;;10.07;2.15;;;;;;;;;;4916289;29;20111;-65
2022/05/16 10:16:48;;;;;;;6.85;2.00;;;;;;;;;;4916720;29;20512;-65
2022/05/16 10:19:19;;;;;;;5.15;2.13;;;;;;;;;;4916225;29;20099;-72
2022/05/16 10:22:01;;;;;;;4.20;1.65;;;;;;;;;;4916811;29;20415;-63
2022/05/16 10:24:31;;;;;;;13.02;2.30;;;29.80;69.50;;;;;;4915096;29;20421;-67
2022/05/16 10:27:02;;;;;;;6.15;1.90;;;31.40;68.00;;;;;;4916342;29;20032;-67
2022/05/16 10:29:30;;;;;;;5.88;1.80;;;;;;;;;;4916572;29;20080;-71
2022/05/16 10:34:57;;;;;;;5.03;2.00;;;;;;;;;;4915524;29;20095;-71
2022/05/16 10:37:25;;;;;;;9.07;2.30;;;;;;;;;;4916307;29;20052;-64
2022/05/16 10:40:18;;;;;;;5.25;1.50;;;33.70;58.70;;;;;;4916586;29;20036;-69
2022/05/16 10:43:10;;;;;;;8.38;1.60;;;34.30;56.60;;;;;;4876189;29;20508;-69
2022/05/16 10:45:38;;;;;;;5.20;1.90;;;;;;;;;;4876843;29;20037;-68
2022/05/16 10:48:25;;;;;;;4.43;2.20;;;35.30;54.60;;;;;;4876346;29;20530;-69
2022/05/16 10:51:01;;;;;;;3.67;1.60;;;35.10;54.40;;;;;;4876576;29;20127;-68
2022/05/16 10:53:32;;;;;;;6.13;1.88;;;35.50;54.10;;;;;;4876400;29;20041;-68
2022/05/16 10:56:25;;;;;;;7.68;2.10;;;35.90;54.10;;;;;;4875832;29;20088;-69
2022/05/16 10:59:42;;;;;;;8.60;2.25;;;36.20;54.50;;;;;;4875960;29;20036;-68
2022/05/16 11:02:29;;;;;;;2.88;1.70;;;37.00;53.20;;;;;;4860736;29;20041;-70
2022/05/16 11:04:57;;;;;;;5.38;1.70;;;37.20;52.20;;;;;;4876602;29;20041;-69
2022/05/16 11:07:28;;;;;;;10.27;1.98;;;37.30;53.00;;;;;;4876576;29;20552;-69
2022/05/16 11:10:16;;;;;;;4.05;2.00;;;37.30;50.00;;;;;;4879255;29;20069;-69
2022/05/16 11:13:12;;;;;;;3.95;1.58;;;37.40;50.40;;;;;;4879977;29;20037;-69
2022/05/16 11:15:38;;;;;;;4.80;2.00;;;37.80;49.20;;;;;;4880110;29;20037;-70
2022/05/16 11:18:22;;;;;;;5.13;1.75;;;37.90;50.10;;;;;;4880026;29;20119;-70
2022/05/16 11:21:19;;;;;;;8.40;1.90;;;38.10;49.40;;;;;;4919942;29;20080;-69
2022/05/16 11:23:57;;;;;;;3.95;1.90;;;38.40;50.80;;;;;;4919985;29;20032;-69
2022/05/16 11:26:47;;;;;;;6.03;1.70;;;39.10;50.80;;;;;;4918577;29;20036;-69
2022/05/16 11:29:33;;;;;;;6.68;1.80;;;39.50;50.50;;;;;;4918593;29;20426;-70
2022/05/16 11:31:58;;;;;;;6.50;1.95;;;39.40;48.90;;;;;;4919881;29;20024;-69
2022/05/16 11:34:59;;;;;;;8.43;2.95;;;39.80;49.10;;;;;;4919420;29;20048;-70
2022/05/16 11:37:33;;;;;;;10.02;2.10;;;;;;;;;;4917466;29;20043;-69
2022/05/16 11:40:03;;;;;;;6.97;1.63;;;;;;;;;;4919536;29;20032;-69
2022/05/16 11:42:49;;;;;;;6.32;1.83;;;;;;;;;;4919296;29;20024;-70
2022/05/16 11:45:34;;;;;;;3.95;1.90;;;;;;;;;;4918100;29;20043;-70
2022/05/16 11:48:20;;;;;;;3.10;2.05;;;;;;;;;;4919230;29;20469;-70
2022/05/16 11:51:14;;;;;;;11.50;3.17;;;40.30;47.40;;;;;;4918016;29;20028;-70
2022/05/16 11:53:57;;;;;;;4.15;2.13;;;;;;;;;;4898595;29;20128;-70
2022/05/16 12:02:33;;;;;;;4.20;1.70;;;;;;;;;;4910263;29;20119;-71
2022/05/16 12:05:02;;;;;;;4.10;2.30;;;;;;;;;;4919220;29;20032;-70
2022/05/16 12:07:31;;;;;;;7.22;2.00;;;;;;;;;;4919359;29;20481;-70
2022/05/16 12:10:02;;;;;;;14.25;2.65;;;;;;;;;;4918963;29;20032;-70
2022/05/16 12:12:34;;;;;;;4.38;1.95;;;42.50;45.60;;;;;;4919063;29;20036;-70
2022/05/16 12:15:24;;;;;;;5.25;1.85;;;43.60;50.90;;;;;;4919025;29;20484;-70
2022/05/16 12:17:50;;;;;;;;;;;;;;;;;;4918123;29;20043;-70
2022/05/16 12:20:31;;;;;;;4.95;1.80;;;44.00;55.80;;;;;;4917127;29;19907;-70
2022/05/16 12:22:57;;;;;;;6.50;2.20;;;;;;;;;;4919217;29;20032;-70
2022/05/16 12:25:28;;;;;;;7.13;2.22;;;;;;;;;;4919024;29;20024;-71
2022/05/16 12:28:29;;;;;;;4.38;1.80;;;;;;;;;;4918829;29;20120;-71
2022/05/16 12:30:57;;;;;;;4.78;1.73;;;;;;;;;;4911605;29;20180;-70
2022/05/16 12:33:23;;;;;;;5.68;1.77;;;;;;;;;;4918514;29;20044;-71
2022/05/16 12:35:53;;;;;;;4.57;1.88;;;;;;;;;;4918617;29;20028;-70
2022/05/16 12:38:21;;;;;;;5.07;2.20;;;;;;;;;;4918572;29;20027;-70
2022/05/16 12:41:05;;;;;;;6.43;2.03;;;45.20;73.90;;;;;;4918231;29;20485;-70
2022/05/16 12:44:02;;;;;;;6.85;2.50;;;;;;;;;;4918430;29;20075;-70
2022/05/16 12:46:45;;;;;;;5.18;2.03;;;;;;;;;;4918412;29;20031;-70
2022/05/16 12:49:34;;;;;;;4.03;1.90;;;;;;;;;;4918370;29;20078;-71
2022/05/16 12:52:06;;;;;;;2.97;2.38;;;;;;;;;;4918405;29;20525;-70
2022/05/16 12:54:53;;;;;;;3.72;2.30;;;;;;;;;;4918299;29;20036;-70
2022/05/16 12:57:22;;;;;;;3.42;2.47;;;;;;;;;;4918120;29;20040;-71
2022/05/16 13:00:09;;;;;;;3.83;2.10;;;45.50;40.30;;;;;;4918204;29;20040;-70
2022/05/16 13:02:43;;;;;;;5.75;2.13;;;45.80;39.40;;;;;;4918301;29;20038;-71
2022/05/16 13:05:24;;;;;;;3.90;2.38;;;46.20;41.40;;;;;;4916720;29;20031;-68
2022/05/16 13:07:50;;;;;;;7.32;2.28;;;;;;;;;;4918115;29;20028;-68
2022/05/16 13:10:32;;;;;;;5.78;2.08;;;;;;;;;;4918051;29;20035;-69
2022/05/16 13:13:18;;;;;;;7.72;2.33;;;47.20;39.50;;;;;;4918183;29;20035;-68
2022/05/16 13:16:00;;;;;;;10.23;2.90;;;46.90;38.50;;;;;;4918269;29;20418;-68
2022/05/16 13:18:31;;;;;;;6.07;3.10;;;;;;;;;;4916660;29;20381;-68
2022/05/16 13:21:04;;;;;;;3.88;2.38;;;46.90;38.30;;;;;;4917935;29;20024;-68
2022/05/16 13:23:30;;;;;;;3.53;2.03;;;47.00;39.40;;;;;;4917945;29;20470;-68
2022/05/16 13:31:39;;;;;;;4.55;2.40;;;47.30;59.20;;;;;;4917284;29;20080;-70
2022/05/16 13:34:05;;;;;;;4.28;2.58;;;47.40;38.60;;;;;;4916631;29;20079;-70
2022/05/16 13:36:32;;;;;;;3.08;2.25;;;47.60;39.30;;;;;;4916375;29;20492;-71
2022/05/16 13:39:11;;;;;;;4.78;2.10;;;47.90;59.90;;;;;;4929206;29;20035;-71
2022/05/16 13:41:38;;;;;;;2.55;2.20;;;48.00;38.90;;;;;;4936446;29;20028;-71
2022/05/16 13:44:04;;;;;;;4.95;2.13;;;48.70;75.90;;;;;;4936401;29;20036;-71
2022/05/16 13:46:34;;;;;;;2.67;1.80;;;48.40;39.50;;;;;;4936152;29;20385;-70
2022/05/16 13:49:07;;;;;;;8.38;2.53;;;48.40;38.00;;;;;;4936371;29;20027;-70
2022/05/16 13:51:47;;;;;;;4.35;2.53;;;48.80;38.40;;;;;;4936278;29;20032;-71
2022/05/16 13:54:15;;;;;;;7.40;2.42;;;;;;;;;;4936183;29;20032;-71
2022/05/16 13:56:53;;;;;;;5.00;2.25;;;48.70;37.90;;;;;;4951005;29;20039;-70
2022/05/16 13:59:26;;;;;;;6.38;2.45;;;;;;;;;;4936154;29;20350;-71
2022/05/16 14:01:57;;;;;;;18.77;2.92;;;;;;;;;;4936109;29;20035;-70
2022/05/16 14:04:29;;;;;;;6.47;2.35;;;49.00;37.60;;;;;;4936006;29;20617;-71
2022/05/16 14:07:00;;;;;;;5.53;2.10;;;;;;;;;;4934873;29;20469;-71